LICDLICB

Guest
Details From LICD - LAMPEDUSA
To LICB - Magliocco
Flight Number -
Tags generated
Created
Modified
Stats Distance 132 nm / 244 km
Max Altitude 15,100 ft / 4,602 m
Waypoints 3
Social Downloads 0
Likes 0
Share VATSIM

Download

Looking for another format? Having issues loading an existing format? Contact us
Advertisement - Login to hide

Notes

Basic altitude profile: - Ascent Rate: 2500ft/min - Ascent Speed: 250kts - Cruise Altitude: 4000ft - Cruise Speed: 150kts - Descent Rate: 1500ft/min - Descent Speed: 250kts Options: - Use NATs: yes - Use PACOTS: yes - Use low airways: yes - Use high airways: no

Route

LICD MOLAM LICB

ID Type Via Altitude Latitude Longitude Leg Dist Tot Dist Heading (true) Name
O LICD APT - 0 ft / 0 m 35.49797˚ 12.61808˚ - 0 nm - LAMPEDUSA
MOLAM FIX - 15,100 ft / 4,602 m 36.19000˚ 13.53972˚ 61 nm 61 nm 47° / 47° -
O LICB APT - 0 ft / 0 m 36.99403˚ 14.60627˚ 70 nm 131 nm 46° / 47° Magliocco

Altitude Profile

Advertisement - Login to hide

LICD

Details ICAO LICD (LMP)
Name LAMPEDUSA
Region Italy
Timezone Europe/Rome (UTC+2.0)
Stats Elevation 70 ft / 21 m (AMSL)
Location 35.497966° 12.618077°
Runways 1
Magnetic Variation 2.755° E

METAR

LICD 221750Z 34008KT 300V010 9000 SCT040 20/19 Q1015

Decode

TAF

TAF LICD 221700Z 2218/2318 36013KT 9999 SCT050= TAF LIPE 221700Z 2218/2318 VRB05KT 9999 SCT035 TEMPO 2218/2220 TSRA TEMPO 2300/2306 2000 BR TEMPO 2310/2316 TSRA

Decode

Departure Runways

ID Width Length Bearing (true) Bearing (mag) Surface Threshold Offset Overrun Length
08 148 ft / 45 m 5,897 ft / 1,797 m 80.57° 77.81° Asphalt 0 ft / 0 m 0 ft / 0 m
26 148 ft / 45 m 5,897 ft / 1,797 m 260.59° 257.83° Asphalt 0 ft / 0 m 0 ft / 0 m

LICB

Details ICAO LICB
Name Magliocco
Region Italy
Timezone Europe/Rome (UTC+2.0)
Stats Elevation 757 ft / 231 m (AMSL)
Location 36.994031° 14.606274°
Runways 1
Magnetic Variation 3.156° E

METAR

LICB 221750Z 28010KT 9999 SCT030 21/17 Q1014

Decode

TAF

Not found

Destination Runways

ID Width Length Bearing (true) Bearing (mag) Surface Threshold Offset Overrun Length
05 147 ft / 45 m 8,334 ft / 2,540 m 49.99° 46.83° Asphalt 196 ft / 60 m 452 ft / 138 m
23 147 ft / 45 m 8,334 ft / 2,540 m 230.01° 226.85° Asphalt 0 ft / 0 m 0 ft / 0 m